Edwards, CO (81632)

12:17 PM MDT on August 30, 2014 (GMT -0600)
Edwards CO | Change Station
CLOSE
Current Station
Personal Weather Station
Location: Edwards, CO
Elevation: 7152 ft
Nearby Weather Stations

Elev 7152 ft 39.65 °N, 106.63 °W | Updated 10 seconds ago

Clear
Clear
76.8 °F
Feels Like 78 °F
N
3.1
Wind Variable Wind from NNW
Gusts 5.4 mph

Today
High -- | Low -- °F
--% Chance of Precip.
Yesterday
High -- | Low -- °F
Precip. -- in
6:32 AM 7:40 PM
Waxing Crescent, 23% visible
Pressure 30.20 in
Visibility 10.0 miles
Clouds Few 10000 ft
Scattered Clouds 18000 ft
Heat Index 78 °F
Dew Point 47 °F
Humidity 35%
Rainfall 0.00 in
Snow Depth 11 in , 87 in
UV 8 out of 12
Pollen 10.50 out of 12
Air Quality Not available.
Flu Activity Not available.
METAR KEGE 301750Z 00000KT 10SM FEW100 SCT180 21/07 A3020

More Conditions Fewer Conditions

Pressure 30.20 in
Visibility 10.0 miles
Clouds Few 10000 ft
Scattered Clouds 18000 ft
Heat Index 78 °F
Dew Point 47 °F
Humidity 35%
Rainfall 0.00 in
Snow Depth 11 in , 87 in
UV 8 out of 12
Pollen 10.50 out of 12
Air Quality Not available.
Flu Activity Not available.
METAR KEGE 301750Z 00000KT 10SM FEW100 SCT180 21/07 A3020

More Conditions Fewer Conditions

10-Day Weather Forecast

Almanac

Astronomy

Aug. 30, 2014 Rise Set
Actual Time 6:32 AM MDT 7:40 PM MDT
Civil Twilight 6:04 AM MDT 8:08 PM MDT
Nautical Twilight 5:31 AM MDT 8:41 PM MDT
Astronomical Twilight 4:57 AM MDT 9:15 PM MDT
Moon 11:22 AM MDT 10:17 PM MDT
Length of Visible Light 14h 03m
Length of Day
13h 07m
Tomorrow will be 2m 29s shorter.
Waxing Crescent, 23% of the Moon is Illuminated
Today
Waxing Crescent
Sep 2
First Quarter
Sep 8
Full
Sep 15
Last Quarter
Sep 24
New

Today's Extremes

State Highs State Lows

Community

WunderPhotos

Upload Photos

1,748,583 photos uploaded!

WunderBlogs® & News

Nearby

Snow Depth

Station Depth Elevation
Mccoy Park 11 in 9480 ft
Vail Mountain 87 in 10300 ft
Kiln 1 in 9600 ft
Summit Ranch 1 in 9400 ft
Nast Lake 0 in 8700 ft

Earthquake Activity

City Distance Mag. Time & Date
No recent earthquake activity has been reported nearby.
Minimum magnitude displayed is 2.5.

Coastal Water Temperatures

Place Temperature
No Stations Reporting

Nearby Weather Stations